createdAt,value
2023-04-23T00:02:59.032Z,16.53
2023-04-23T00:06:05.676Z,16.50
2023-04-23T00:09:08.610Z,16.45
2023-04-23T00:12:12.089Z,16.55
2023-04-23T00:15:16.376Z,16.40
2023-04-23T00:18:20.056Z,16.54
2023-04-23T00:21:24.152Z,16.49
2023-04-23T00:24:26.904Z,16.45
2023-04-23T00:27:29.500Z,16.26
2023-04-23T00:30:32.327Z,16.19
2023-04-23T00:33:34.976Z,16.29
2023-04-23T00:36:39.117Z,16.21
2023-04-23T00:39:41.840Z,16.06
2023-04-23T00:42:45.686Z,15.99
2023-04-23T00:45:48.909Z,16.01
2023-04-23T00:48:52.113Z,15.87
2023-04-23T00:51:56.209Z,15.59
2023-04-23T00:54:58.880Z,15.45
2023-04-23T01:01:30.244Z,15.19
2023-04-23T01:04:33.460Z,15.10
2023-04-23T01:07:38.093Z,15.14
2023-04-23T01:10:40.991Z,15.05
2023-04-23T01:13:44.204Z,15.09
2023-04-23T01:16:47.180Z,15.08
2023-04-23T01:19:49.762Z,15.24
2023-04-23T01:22:54.034Z,15.23
2023-04-23T01:25:57.640Z,15.42
2023-04-23T01:29:01.000Z,15.50
2023-04-23T01:32:04.087Z,15.43
2023-04-23T01:35:08.298Z,15.31
2023-04-23T01:38:12.972Z,15.25
2023-04-23T01:41:15.620Z,15.26
2023-04-23T01:44:18.224Z,15.40
2023-04-23T01:47:21.441Z,15.48
2023-04-23T01:50:26.172Z,15.57
2023-04-23T01:53:30.184Z,15.52
2023-04-23T01:56:35.055Z,15.54
2023-04-23T01:59:38.361Z,15.52
2023-04-23T02:02:42.382Z,15.37
2023-04-23T02:05:45.647Z,15.34
2023-04-23T02:08:49.800Z,15.39
2023-04-23T02:11:52.469Z,15.29
2023-04-23T02:14:55.293Z,15.22
2023-04-23T02:17:58.001Z,15.20
2023-04-23T02:21:01.926Z,15.00
2023-04-23T02:24:07.026Z,14.52
2023-04-23T02:27:09.593Z,14.35
2023-04-23T02:30:13.010Z,14.23
2023-04-23T02:33:15.580Z,14.17
2023-04-23T02:36:18.302Z,14.19
2023-04-23T02:39:22.260Z,14.20
2023-04-23T02:42:24.943Z,14.20
2023-04-23T02:45:27.638Z,14.14
2023-04-23T02:48:30.764Z,14.21
2023-04-23T02:51:33.695Z,14.22
2023-04-23T02:54:37.742Z,14.17
2023-04-23T02:57:40.979Z,14.13
2023-04-23T03:00:43.608Z,14.19
2023-04-23T03:03:46.361Z,14.23
2023-04-23T03:06:49.082Z,14.25
2023-04-23T03:09:53.100Z,14.26
2023-04-23T03:12:56.425Z,14.28
2023-04-23T03:15:58.960Z,14.34
2023-04-23T03:19:02.028Z,14.31
2023-04-23T03:22:05.775Z,14.29
2023-04-23T03:25:10.157Z,14.30
2023-04-23T03:28:12.788Z,14.27
2023-04-23T03:31:15.326Z,14.20
2023-04-23T03:34:17.832Z,14.19
2023-04-23T03:37:20.311Z,14.18
2023-04-23T03:40:24.283Z,14.16
2023-04-23T03:43:27.019Z,14.06
2023-04-23T03:46:29.722Z,14.08
2023-04-23T03:49:32.353Z,14.12
2023-04-23T03:52:35.209Z,14.12
2023-04-23T03:55:39.120Z,14.09
2023-04-23T03:58:41.693Z,14.07
2023-04-23T04:01:44.314Z,14.07
2023-04-23T04:04:49.654Z,14.12
2023-04-23T04:07:52.375Z,14.17
2023-04-23T04:10:57.034Z,14.19
2023-04-23T04:13:59.598Z,14.21
2023-04-23T04:17:02.152Z,14.13
2023-04-23T04:20:06.778Z,13.91
2023-04-23T04:23:09.275Z,13.71
2023-04-23T04:26:14.794Z,13.46
2023-04-23T04:29:17.283Z,13.33
2023-04-23T04:32:19.817Z,13.25
2023-04-23T04:35:22.579Z,13.34
2023-04-23T04:38:25.110Z,13.37
2023-04-23T04:41:29.031Z,13.33
2023-04-23T04:44:32.224Z,13.47
2023-04-23T04:47:34.873Z,13.69
2023-04-23T04:50:37.621Z,13.70
2023-04-23T04:53:40.194Z,13.79
2023-04-23T04:56:44.036Z,13.81
2023-04-23T04:59:46.929Z,13.78
2023-04-23T05:02:49.988Z,13.90
2023-04-23T05:05:54.997Z,14.06
2023-04-23T05:08:57.707Z,14.29
2023-04-23T05:12:01.922Z,14.50
2023-04-23T05:15:05.393Z,14.75
2023-04-23T05:18:07.826Z,14.94
2023-04-23T05:21:11.507Z,15.12
2023-04-23T05:24:13.979Z,15.30
2023-04-23T05:27:17.907Z,15.53
2023-04-23T05:30:20.498Z,15.78
2023-04-23T05:33:23.033Z,15.87
2023-04-23T05:36:25.903Z,15.99
2023-04-23T05:39:28.436Z,16.12
2023-04-23T05:42:32.295Z,16.16
2023-04-23T05:45:35.028Z,16.11
2023-04-23T05:48:37.589Z,16.14
2023-04-23T05:51:40.259Z,16.31
2023-04-23T05:54:43.070Z,16.14
2023-04-23T05:57:47.504Z,16.06
2023-04-23T06:00:50.570Z,16.00
2023-04-23T06:03:53.325Z,15.95
2023-04-23T06:06:56.029Z,16.09
2023-04-23T06:09:58.558Z,16.74
2023-04-23T06:13:02.465Z,17.29
2023-04-23T06:16:05.068Z,17.21
2023-04-23T06:19:07.622Z,17.11
2023-04-23T06:22:10.492Z,17.19
2023-04-23T06:25:12.975Z,17.08
2023-04-23T06:28:17.110Z,17.18
2023-04-23T06:31:20.196Z,17.23
2023-04-23T06:34:22.870Z,16.91
2023-04-23T06:37:27.514Z,17.03
2023-04-23T06:40:32.346Z,17.31
2023-04-23T06:43:36.748Z,17.40
2023-04-23T06:46:39.428Z,17.62
2023-04-23T06:49:42.028Z,17.79
2023-04-23T06:52:44.691Z,17.62
2023-04-23T06:55:47.218Z,17.39
2023-04-23T06:58:51.502Z,17.36
2023-04-23T07:01:54.179Z,17.65
2023-04-23T07:04:56.720Z,18.08
2023-04-23T07:07:59.358Z,18.12
2023-04-23T07:11:02.831Z,18.14
2023-04-23T07:14:06.898Z,18.23
2023-04-23T07:17:10.993Z,19.00
2023-04-23T07:20:13.627Z,19.61
2023-04-23T07:23:16.346Z,20.10
2023-04-23T07:26:18.949Z,20.61
2023-04-23T07:29:23.132Z,20.35
2023-04-23T07:32:28.373Z,20.41
2023-04-23T07:35:31.466Z,19.24
2023-04-23T07:38:34.028Z,19.30
2023-04-23T07:41:37.469Z,19.61
2023-04-23T07:44:41.982Z,19.81
2023-04-23T07:47:46.393Z,20.75
2023-04-23T07:50:49.175Z,21.20
2023-04-23T07:53:54.202Z,20.42
2023-04-23T07:56:57.393Z,20.58
2023-04-23T08:00:01.546Z,20.32
2023-04-23T08:03:04.379Z,21.04
2023-04-23T08:06:07.534Z,21.09
2023-04-23T08:09:10.223Z,20.80
2023-04-23T08:12:12.791Z,20.65
2023-04-23T08:15:16.916Z,19.91
2023-04-23T08:18:19.463Z,19.82
2023-04-23T08:21:22.454Z,19.82
2023-04-23T08:24:24.989Z,20.09
2023-04-23T08:27:27.873Z,20.55
2023-04-23T08:30:31.867Z,21.01
2023-04-23T08:33:34.393Z,21.77
2023-04-23T08:36:37.457Z,21.99
2023-04-23T08:39:40.783Z,21.20
2023-04-23T08:42:44.881Z,21.48
2023-04-23T08:45:49.992Z,21.92
2023-04-23T08:48:53.649Z,21.73
2023-04-23T08:51:57.410Z,22.08
2023-04-23T08:55:02.664Z,22.39
2023-04-23T08:58:07.872Z,22.89
2023-04-23T09:01:12.193Z,23.30
2023-04-23T09:04:16.892Z,23.27
2023-04-23T09:07:19.798Z,23.38
2023-04-23T09:10:22.624Z,22.51
2023-04-23T09:13:25.700Z,23.11
2023-04-23T09:16:29.800Z,23.51
2023-04-23T09:19:32.604Z,23.94
2023-04-23T09:22:44.356Z,23.85
2023-04-23T09:25:48.863Z,23.33
2023-04-23T09:28:52.373Z,23.78
2023-04-23T09:31:57.513Z,23.70
2023-04-23T09:35:00.183Z,22.94
2023-04-23T09:38:06.055Z,22.38
2023-04-23T09:41:22.637Z,22.30
2023-04-23T09:44:26.484Z,22.28
2023-04-23T09:47:33.333Z,22.24
2023-04-23T09:50:38.352Z,21.76
2023-04-23T09:53:42.759Z,21.40
2023-04-23T09:56:46.358Z,21.92
2023-04-23T09:59:53.070Z,21.86
2023-04-23T10:03:05.017Z,22.26
2023-04-23T10:06:17.280Z,22.64
2023-04-23T10:09:29.879Z,23.90
2023-04-23T10:12:52.266Z,23.13
2023-04-23T10:15:57.822Z,24.07
2023-04-23T10:19:03.645Z,24.86
2023-04-23T10:22:18.609Z,24.53
2023-04-23T10:25:22.451Z,24.94
2023-04-23T10:28:29.214Z,23.85
2023-04-23T10:31:33.986Z,24.42
2023-04-23T10:34:38.320Z,24.81
2023-04-23T10:37:41.612Z,25.31
2023-04-23T10:40:46.643Z,25.64
2023-04-23T10:43:49.287Z,25.40
2023-04-23T10:46:53.751Z,25.27
2023-04-23T10:49:57.927Z,24.60
2023-04-23T10:53:00.579Z,25.96
2023-04-23T10:56:07.669Z,24.51
2023-04-23T10:59:19.530Z,24.37
2023-04-23T11:02:24.924Z,24.74
2023-04-23T11:05:29.370Z,24.91
2023-04-23T11:08:33.074Z,25.55
2023-04-23T11:11:40.839Z,24.99
2023-04-23T11:14:48.089Z,25.20
2023-04-23T11:18:00.922Z,25.60
2023-04-23T11:21:07.175Z,24.22
2023-04-23T11:24:09.982Z,24.35
2023-04-23T11:27:14.069Z,24.49
2023-04-23T11:30:18.419Z,24.22
2023-04-23T11:33:21.252Z,24.75
2023-04-23T11:36:25.952Z,25.51
2023-04-23T11:39:28.646Z,26.29
2023-04-23T11:42:31.539Z,27.10
2023-04-23T11:45:34.156Z,27.42
2023-04-23T11:48:36.884Z,27.56
2023-04-23T11:51:46.528Z,27.73
2023-04-23T11:54:49.119Z,27.95
2023-04-23T11:57:53.499Z,27.63
2023-04-23T12:00:59.228Z,26.91
2023-04-23T12:04:02.075Z,26.96
2023-04-23T12:07:19.306Z,28.19
2023-04-23T12:10:26.120Z,26.87
2023-04-23T12:13:31.323Z,26.81
2023-04-23T12:16:38.743Z,26.06
2023-04-23T12:19:44.705Z,26.25
2023-04-23T12:22:49.207Z,25.25
2023-04-23T12:25:54.516Z,23.82
2023-04-23T12:29:00.227Z,24.37
2023-04-23T12:32:03.490Z,24.36
2023-04-23T12:35:07.182Z,25.65
2023-04-23T12:38:23.558Z,27.63
2023-04-23T12:41:26.299Z,28.12
2023-04-23T12:44:29.441Z,28.68
2023-04-23T12:47:32.172Z,27.91
2023-04-23T12:50:35.097Z,27.98
2023-04-23T12:53:39.019Z,26.68
2023-04-23T12:56:41.889Z,27.55
2023-04-23T12:59:44.874Z,28.60
2023-04-23T13:02:47.929Z,36.28
2023-04-23T13:05:51.318Z,40.26
2023-04-23T13:08:55.575Z,36.35
2023-04-23T13:12:00.160Z,39.00
2023-04-23T13:15:03.453Z,40.82
2023-04-23T13:18:06.873Z,39.87
2023-04-23T13:21:11.016Z,44.29
2023-04-23T13:24:15.021Z,41.78
2023-04-23T13:27:17.852Z,44.81
2023-04-23T13:30:20.540Z,46.17
2023-04-23T13:33:23.153Z,38.08
2023-04-23T13:36:26.348Z,36.89
2023-04-23T13:39:30.892Z,42.02
2023-04-23T13:42:34.260Z,37.94
2023-04-23T13:45:36.911Z,34.01
2023-04-23T13:48:39.546Z,34.59
2023-04-23T13:51:42.202Z,39.41
2023-04-23T13:54:47.784Z,38.66
2023-04-23T13:57:50.638Z,40.02
2023-04-23T14:00:53.920Z,41.00
2023-04-23T14:03:57.107Z,39.76
2023-04-23T14:06:59.754Z,34.64
2023-04-23T14:10:04.371Z,38.95
2023-04-23T14:13:07.096Z,38.67
2023-04-23T14:16:09.891Z,32.89
2023-04-23T14:19:12.598Z,33.15
2023-04-23T14:22:15.215Z,34.00
2023-04-23T14:25:24.831Z,33.43
2023-04-23T14:28:31.080Z,35.83
2023-04-23T14:31:33.990Z,33.97
2023-04-23T14:34:36.824Z,38.33
2023-04-23T14:37:43.057Z,38.97
2023-04-23T14:40:47.056Z,37.68
2023-04-23T14:43:49.713Z,33.95
2023-04-23T14:46:52.456Z,30.08
2023-04-23T14:49:57.487Z,28.88
2023-04-23T14:53:00.191Z,26.87
2023-04-23T14:56:05.420Z,26.02
2023-04-23T14:59:08.198Z,25.55
2023-04-23T15:02:12.042Z,25.32
2023-04-23T15:05:15.875Z,24.68
2023-04-23T15:08:18.519Z,24.63
2023-04-23T15:11:22.590Z,24.71
2023-04-23T15:14:27.060Z,24.96
2023-04-23T15:17:29.829Z,24.94
2023-04-23T15:20:32.546Z,24.85
2023-04-23T15:23:35.186Z,24.43
2023-04-23T15:26:39.335Z,24.16
2023-04-23T15:29:42.315Z,23.58
2023-04-23T15:32:45.085Z,23.47
2023-04-23T15:35:48.435Z,23.13
2023-04-23T15:38:51.177Z,22.86
2023-04-23T15:41:55.195Z,22.70
2023-04-23T15:44:57.775Z,22.10
2023-04-23T15:48:00.630Z,21.01
2023-04-23T15:51:03.401Z,19.45
2023-04-23T15:54:08.231Z,18.91
2023-04-23T15:57:13.087Z,19.49
2023-04-23T16:00:16.882Z,20.23
2023-04-23T16:03:19.891Z,20.77
2023-04-23T16:06:22.650Z,20.97
2023-04-23T16:09:25.221Z,21.05
2023-04-23T16:12:29.363Z,20.98
2023-04-23T16:15:31.998Z,20.92
2023-04-23T16:18:34.734Z,20.73
2023-04-23T16:21:37.277Z,20.66
2023-04-23T16:24:39.834Z,20.53
2023-04-23T16:27:43.967Z,20.25
2023-04-23T16:30:46.576Z,20.22
2023-04-23T16:33:49.165Z,19.85
2023-04-23T16:36:51.622Z,19.01
2023-04-23T16:39:54.241Z,15.81
2023-04-23T16:42:58.130Z,14.43
2023-04-23T16:46:00.662Z,14.83
2023-04-23T16:49:03.430Z,14.74
2023-04-23T16:52:05.930Z,14.59
2023-04-23T16:55:09.252Z,14.65
2023-04-23T16:58:13.096Z,14.96
2023-04-23T17:01:16.500Z,14.86
2023-04-23T17:04:19.141Z,14.91
2023-04-23T17:07:21.837Z,15.12
2023-04-23T17:10:24.521Z,15.33
2023-04-23T17:13:28.359Z,15.54
2023-04-23T17:16:31.043Z,15.64
2023-04-23T17:19:34.589Z,15.63
2023-04-23T17:22:37.200Z,15.68
2023-04-23T17:25:39.707Z,15.59
2023-04-23T17:28:43.650Z,15.89
2023-04-23T17:31:46.592Z,15.76
2023-04-23T17:34:53.912Z,15.68
2023-04-23T17:38:02.562Z,15.52
2023-04-23T17:41:05.705Z,15.53
2023-04-23T17:44:09.586Z,15.54
2023-04-23T17:47:14.024Z,15.49
2023-04-23T17:50:17.154Z,15.48
2023-04-23T17:53:19.677Z,15.64
2023-04-23T17:56:22.145Z,15.52
2023-04-23T17:59:26.068Z,15.43
2023-04-23T18:02:28.849Z,15.27
2023-04-23T18:05:31.819Z,15.31
2023-04-23T18:08:34.288Z,15.29
2023-04-23T18:15:05.966Z,15.26
2023-04-23T18:18:08.917Z,15.25
2023-04-23T18:21:13.367Z,15.18
2023-04-23T18:24:18.222Z,14.90
2023-04-23T18:27:20.914Z,14.61
2023-04-23T18:30:25.672Z,14.51
2023-04-23T18:33:32.702Z,14.44
2023-04-23T18:36:38.267Z,14.30
2023-04-23T18:39:41.476Z,14.18
2023-04-23T18:42:43.965Z,14.07
2023-04-23T18:45:47.955Z,14.03
2023-04-23T18:48:54.989Z,14.09
2023-04-23T18:51:57.995Z,13.94
2023-04-23T18:55:00.709Z,14.00
2023-04-23T18:58:03.240Z,13.88
2023-04-23T19:01:07.347Z,13.99
2023-04-23T19:04:10.225Z,14.09
2023-04-23T19:07:12.934Z,14.27
2023-04-23T19:10:16.434Z,14.46
2023-04-23T19:13:20.358Z,14.64
2023-04-23T19:16:24.312Z,14.82
2023-04-23T19:19:30.846Z,14.86
2023-04-23T19:22:33.367Z,14.86
2023-04-23T19:25:36.114Z,14.89
2023-04-23T19:28:38.644Z,14.82
2023-04-23T19:31:42.479Z,14.30
2023-04-23T19:34:45.629Z,14.03
2023-04-23T19:37:48.659Z,13.85
2023-04-23T19:40:51.289Z,13.63
2023-04-23T19:43:53.903Z,13.58
2023-04-23T19:46:57.846Z,13.36
2023-04-23T19:50:00.404Z,13.31
2023-04-23T19:53:03.019Z,13.18
2023-04-23T19:56:08.382Z,12.96
2023-04-23T19:59:13.840Z,12.84
2023-04-23T20:02:18.843Z,12.72
2023-04-23T20:05:22.043Z,12.62
2023-04-23T20:08:29.677Z,12.54
2023-04-23T20:11:32.225Z,12.52
2023-04-23T20:14:34.850Z,12.45
2023-04-23T20:17:39.056Z,12.57
2023-04-23T20:20:42.688Z,12.80
2023-04-23T20:23:45.042Z,12.95
2023-04-23T20:26:47.884Z,13.07
2023-04-23T20:29:50.497Z,13.14
2023-04-23T20:32:54.537Z,13.14
2023-04-23T20:35:58.770Z,13.16
2023-04-23T20:39:03.274Z,13.21
2023-04-23T20:42:07.043Z,13.23
2023-04-23T20:45:11.609Z,13.24
2023-04-23T20:48:15.508Z,13.21
2023-04-23T20:51:18.151Z,13.23
2023-04-23T20:54:20.782Z,13.18
2023-04-23T20:57:23.295Z,13.21
2023-04-23T21:00:27.856Z,13.21
2023-04-23T21:03:32.989Z,13.18
2023-04-23T21:06:35.956Z,13.13
2023-04-23T21:09:38.560Z,13.11
2023-04-23T21:12:43.465Z,13.08
2023-04-23T21:15:46.178Z,12.94
2023-04-23T21:18:51.062Z,13.04
2023-04-23T21:21:53.667Z,13.02
2023-04-23T21:24:56.576Z,12.95
2023-04-23T21:27:59.430Z,12.85
2023-04-23T21:31:06.962Z,12.86
2023-04-23T21:34:11.102Z,12.80
2023-04-23T21:37:13.627Z,12.94
2023-04-23T21:40:16.154Z,12.72
2023-04-23T21:43:18.776Z,12.83
2023-04-23T21:46:24.035Z,12.78
2023-04-23T21:49:27.984Z,12.68
2023-04-23T21:52:31.221Z,12.70
2023-04-23T21:55:33.792Z,12.92
2023-04-23T21:58:36.309Z,12.86
2023-04-23T22:01:38.840Z,12.77
2023-04-23T22:04:44.534Z,12.82
2023-04-23T22:07:47.632Z,12.80
2023-04-23T22:10:50.246Z,12.75
2023-04-23T22:13:52.769Z,12.81
2023-04-23T22:16:55.330Z,12.80
2023-04-23T22:19:59.282Z,12.73
2023-04-23T22:23:01.820Z,12.75
2023-04-23T22:26:04.409Z,12.89
2023-04-23T22:29:06.967Z,12.86
2023-04-23T22:32:09.563Z,12.87
2023-04-23T22:35:13.647Z,12.86
2023-04-23T22:38:16.567Z,12.91
2023-04-23T22:41:19.116Z,12.88
2023-04-23T22:44:21.670Z,12.88
2023-04-23T22:47:24.254Z,12.85
2023-04-23T22:50:29.535Z,12.77
2023-04-23T22:53:32.132Z,12.92
2023-04-23T22:56:34.661Z,12.87
2023-04-23T22:59:37.260Z,12.92
2023-04-23T23:02:40.060Z,12.91
2023-04-23T23:05:44.098Z,12.86
2023-04-23T23:08:46.608Z,12.97
2023-04-23T23:11:49.147Z,12.87
2023-04-23T23:14:51.725Z,12.98
2023-04-23T23:17:54.766Z,12.87
2023-04-23T23:20:58.833Z,12.81
2023-04-23T23:24:01.377Z,12.85
2023-04-23T23:27:04.008Z,12.74
2023-04-23T23:30:09.647Z,12.82
2023-04-23T23:33:12.326Z,12.85
2023-04-23T23:36:16.354Z,12.80
2023-04-23T23:39:20.618Z,12.75
2023-04-23T23:42:23.143Z,12.84
2023-04-23T23:45:25.931Z,12.87
2023-04-23T23:48:28.525Z,12.88
2023-04-23T23:51:32.542Z,12.78
2023-04-23T23:54:35.264Z,12.99
2023-04-23T23:57:37.794Z,13.12
